createdAt,value
2023-03-22T00:01:48.397Z,78.07
2023-03-22T00:04:18.837Z,78.36
2023-03-22T00:06:53.003Z,79.16
2023-03-22T00:09:21.558Z,79.60
2023-03-22T00:12:21.567Z,79.52
2023-03-22T00:14:52.338Z,79.57
2023-03-22T00:17:32.239Z,79.84
2023-03-22T00:20:01.560Z,79.51
2023-03-22T00:22:29.987Z,79.73
2023-03-22T00:24:59.400Z,79.75
2023-03-22T00:27:28.792Z,79.97
2023-03-22T00:30:01.018Z,80.14
2023-03-22T00:32:37.415Z,80.38
2023-03-22T00:35:08.056Z,80.39
2023-03-22T00:37:39.830Z,80.01
2023-03-22T00:40:18.339Z,78.75
2023-03-22T00:42:46.791Z,78.12
2023-03-22T00:45:16.695Z,76.60
2023-03-22T00:47:47.555Z,76.35
2023-03-22T00:50:15.876Z,76.06
2023-03-22T00:52:50.474Z,76.21
2023-03-22T00:55:47.652Z,76.47
2023-03-22T00:58:16.136Z,77.53
2023-03-22T01:00:50.925Z,79.66
2023-03-22T01:03:23.185Z,79.77
2023-03-22T01:05:55.638Z,80.72
2023-03-22T01:08:39.179Z,78.89
2023-03-22T01:11:09.288Z,79.45
2023-03-22T01:13:41.924Z,79.76
2023-03-22T01:16:11.507Z,78.70
2023-03-22T01:18:42.010Z,77.45
2023-03-22T01:21:15.046Z,77.27
2023-03-22T01:24:02.579Z,78.66
2023-03-22T01:26:35.876Z,79.89
2023-03-22T01:29:04.898Z,80.35
2023-03-22T01:31:35.217Z,81.41
2023-03-22T01:34:06.480Z,81.64
2023-03-22T01:36:36.141Z,81.64
2023-03-22T01:39:06.154Z,81.69
2023-03-22T01:41:37.689Z,79.30
2023-03-22T01:44:17.642Z,80.50
2023-03-22T01:46:51.512Z,81.01
2023-03-22T01:49:27.480Z,81.51
2023-03-22T01:52:00.438Z,81.97
2023-03-22T01:55:03.301Z,82.58
2023-03-22T01:57:47.339Z,84.42
2023-03-22T02:01:12.288Z,83.81
2023-03-22T02:03:52.435Z,83.07
2023-03-22T02:06:25.604Z,79.92
2023-03-22T02:09:29.957Z,80.01
2023-03-22T02:12:12.410Z,80.48
2023-03-22T02:15:05.308Z,81.02
2023-03-22T02:18:11.541Z,82.17
2023-03-22T02:21:14.177Z,82.24
2023-03-22T02:24:23.685Z,82.35
2023-03-22T02:27:38.270Z,81.88
2023-03-22T02:30:33.047Z,80.08
2023-03-22T02:33:36.981Z,80.34
2023-03-22T02:36:24.766Z,81.74
2023-03-22T02:39:14.009Z,81.32
2023-03-22T02:42:08.525Z,81.34
2023-03-22T02:44:43.433Z,82.43
2023-03-22T02:47:23.474Z,84.05
2023-03-22T02:49:58.350Z,85.00
2023-03-22T02:52:34.962Z,84.98
2023-03-22T02:55:12.280Z,84.83
2023-03-22T02:57:49.354Z,84.90
2023-03-22T03:00:21.114Z,84.75
2023-03-22T03:02:53.855Z,85.03
2023-03-22T03:05:24.816Z,84.78
2023-03-22T03:08:01.706Z,84.45
2023-03-22T03:10:35.096Z,84.01
2023-03-22T03:13:03.611Z,83.92
2023-03-22T03:15:34.258Z,83.61
2023-03-22T03:18:20.458Z,82.94
2023-03-22T03:21:02.515Z,82.27
2023-03-22T03:23:41.559Z,82.31
2023-03-22T03:26:21.574Z,82.11
2023-03-22T03:28:57.279Z,82.10
2023-03-22T03:31:33.219Z,82.42
2023-03-22T03:34:11.053Z,82.89
2023-03-22T03:36:47.524Z,83.28
2023-03-22T03:39:19.490Z,83.51
2023-03-22T03:41:53.141Z,83.38
2023-03-22T03:44:23.081Z,82.50
2023-03-22T03:46:54.187Z,82.34
2023-03-22T03:49:24.854Z,82.13
2023-03-22T03:51:55.116Z,82.13
2023-03-22T03:54:25.140Z,81.76
2023-03-22T03:56:56.045Z,82.04
2023-03-22T03:59:25.431Z,82.06
2023-03-22T04:01:56.149Z,81.87
2023-03-22T04:04:31.018Z,82.31
2023-03-22T04:07:04.822Z,82.71
2023-03-22T04:09:41.383Z,83.24
2023-03-22T04:12:38.616Z,83.70
2023-03-22T04:15:19.853Z,83.99
2023-03-22T04:17:54.018Z,83.64
2023-03-22T04:20:32.852Z,83.41
2023-03-22T04:23:03.480Z,83.69
2023-03-22T04:25:34.102Z,83.98
2023-03-22T04:28:13.762Z,84.13
2023-03-22T04:30:45.876Z,84.20
2023-03-22T04:33:23.190Z,84.12
2023-03-22T04:36:11.558Z,83.84
2023-03-22T04:39:01.149Z,83.43
2023-03-22T04:42:33.577Z,83.52
2023-03-22T04:45:13.026Z,83.48
2023-03-22T04:47:53.931Z,83.26
2023-03-22T04:51:16.299Z,83.45
2023-03-22T04:54:00.230Z,83.22
2023-03-22T04:56:30.774Z,83.18
2023-03-22T05:00:07.438Z,83.81
2023-03-22T05:03:31.432Z,84.60
2023-03-22T05:06:09.233Z,84.27
2023-03-22T05:09:02.746Z,84.11
2023-03-22T05:12:28.692Z,83.79
2023-03-22T05:16:16.678Z,83.70
2023-03-22T05:18:54.523Z,83.82
2023-03-22T05:21:28.699Z,83.72
2023-03-22T05:24:52.231Z,83.25
2023-03-22T05:27:31.674Z,83.10
2023-03-22T05:30:21.921Z,82.82
2023-03-22T05:33:03.290Z,83.51
2023-03-22T05:36:00.807Z,83.54
2023-03-22T05:38:34.625Z,83.56
2023-03-22T05:41:07.136Z,83.94
2023-03-22T05:44:14.800Z,83.81
2023-03-22T05:47:20.569Z,83.30
2023-03-22T05:50:25.439Z,83.16
2023-03-22T05:53:47.432Z,83.26
2023-03-22T05:56:24.427Z,82.86
2023-03-22T05:59:12.956Z,82.63
2023-03-22T06:01:43.962Z,82.46
2023-03-22T06:04:23.588Z,82.07
2023-03-22T06:06:59.804Z,81.91
2023-03-22T06:09:42.626Z,82.39
2023-03-22T06:12:18.730Z,82.52
2023-03-22T06:15:03.596Z,82.36
2023-03-22T06:17:34.135Z,82.20
2023-03-22T06:20:36.877Z,81.93
2023-03-22T06:23:39.692Z,81.77
2023-03-22T06:26:12.164Z,82.26
2023-03-22T06:28:43.519Z,81.66
2023-03-22T06:31:22.757Z,81.08
2023-03-22T06:34:02.913Z,80.62
2023-03-22T06:36:41.113Z,80.70
2023-03-22T06:40:12.109Z,80.69
2023-03-22T06:42:43.923Z,80.78
2023-03-22T06:45:17.243Z,81.36
2023-03-22T06:47:48.395Z,81.59
2023-03-22T06:51:01.018Z,80.96
2023-03-22T06:53:35.434Z,79.94
2023-03-22T06:56:46.348Z,79.74
2023-03-22T06:59:45.714Z,79.90
2023-03-22T07:02:15.786Z,80.38
2023-03-22T07:05:29.675Z,80.66
2023-03-22T07:08:03.434Z,79.58
2023-03-22T07:10:34.675Z,79.66
2023-03-22T07:13:07.243Z,80.45
2023-03-22T07:15:44.009Z,80.81
2023-03-22T07:18:36.844Z,80.14
2023-03-22T07:21:32.542Z,80.04
2023-03-22T07:24:55.627Z,79.70
2023-03-22T07:27:36.584Z,78.57
2023-03-22T07:31:10.142Z,78.24
2023-03-22T07:33:55.366Z,78.52
2023-03-22T07:36:26.888Z,78.37
2023-03-22T07:38:57.811Z,78.41
2023-03-22T07:41:31.753Z,78.12
2023-03-22T07:44:33.085Z,77.69
2023-03-22T07:47:40.748Z,77.57
2023-03-22T07:50:42.303Z,77.67
2023-03-22T07:53:11.569Z,77.14
2023-03-22T07:55:44.310Z,77.39
2023-03-22T07:58:14.944Z,77.06
2023-03-22T08:00:53.521Z,76.83
2023-03-22T08:03:50.266Z,76.44
2023-03-22T08:06:37.081Z,76.70
2023-03-22T08:09:16.996Z,76.43
2023-03-22T08:11:45.610Z,76.54
2023-03-22T08:14:18.556Z,76.78
2023-03-22T08:16:51.552Z,76.11
2023-03-22T08:19:26.028Z,75.64
2023-03-22T08:22:04.264Z,74.70
2023-03-22T08:24:58.911Z,74.37
2023-03-22T08:27:36.893Z,74.90
2023-03-22T08:30:56.978Z,75.03
2023-03-22T08:33:31.062Z,73.88
2023-03-22T08:36:13.383Z,74.00
2023-03-22T08:38:51.831Z,74.15
2023-03-22T08:41:32.880Z,73.54
2023-03-22T08:44:07.276Z,72.94
2023-03-22T08:46:50.116Z,72.59
2023-03-22T08:49:18.572Z,73.11
2023-03-22T08:52:24.621Z,73.30
2023-03-22T08:55:17.579Z,72.83
2023-03-22T08:58:06.516Z,73.33
2023-03-22T09:01:00.000Z,72.64
2023-03-22T09:04:33.621Z,71.23
2023-03-22T09:07:06.124Z,71.25
2023-03-22T09:10:25.403Z,70.17
2023-03-22T09:12:55.514Z,70.69
2023-03-22T09:15:25.378Z,70.71
2023-03-22T09:18:49.456Z,70.29
2023-03-22T09:25:44.099Z,70.27
2023-03-22T09:28:14.967Z,70.32
2023-03-22T09:30:44.994Z,70.36
2023-03-22T09:33:21.971Z,70.18
2023-03-22T09:35:55.511Z,70.07
2023-03-22T09:39:22.819Z,70.44
2023-03-22T09:42:00.725Z,71.04
2023-03-22T09:44:36.224Z,70.84
2023-03-22T09:47:14.960Z,70.79
2023-03-22T09:49:53.693Z,71.22
2023-03-22T09:52:52.658Z,71.64
2023-03-22T09:55:30.673Z,71.54
2023-03-22T09:58:08.961Z,71.90
2023-03-22T10:00:47.138Z,70.66
2023-03-22T10:03:27.229Z,71.10
2023-03-22T10:06:19.133Z,71.05
2023-03-22T10:13:22.786Z,69.49
2023-03-22T10:15:56.819Z,70.92
2023-03-22T10:18:52.968Z,69.67
2023-03-22T10:21:37.123Z,69.06
2023-03-22T10:24:16.241Z,70.04
2023-03-22T10:27:00.451Z,69.27
2023-03-22T10:29:58.690Z,68.84
2023-03-22T10:32:51.117Z,68.68
2023-03-22T10:35:30.757Z,67.92
2023-03-22T10:38:04.783Z,67.75
2023-03-22T10:41:32.103Z,67.80
2023-03-22T10:45:19.025Z,68.32
2023-03-22T10:48:00.251Z,66.22
2023-03-22T10:50:33.318Z,66.16
2023-03-22T10:53:05.800Z,65.91
2023-03-22T10:55:43.533Z,66.29
2023-03-22T10:58:17.498Z,65.64
2023-03-22T11:00:49.835Z,66.43
2023-03-22T11:03:42.942Z,67.08
2023-03-22T11:07:09.165Z,66.02
2023-03-22T11:09:39.519Z,65.12
2023-03-22T11:12:17.402Z,65.08
2023-03-22T11:14:47.032Z,63.87
2023-03-22T11:17:19.820Z,63.29
2023-03-22T11:19:56.231Z,64.35
2023-03-22T11:22:32.127Z,65.06
2023-03-22T11:25:04.156Z,62.96
2023-03-22T11:31:57.443Z,62.19
2023-03-22T11:34:32.496Z,62.70
2023-03-22T11:37:09.639Z,61.77
2023-03-22T11:39:49.650Z,62.24
2023-03-22T11:42:22.280Z,62.38
2023-03-22T11:44:57.470Z,62.33
2023-03-22T11:47:38.300Z,60.50
2023-03-22T11:50:10.696Z,60.85
2023-03-22T11:53:44.592Z,62.35
2023-03-22T11:56:23.139Z,60.47
2023-03-22T11:59:04.459Z,59.41
2023-03-22T12:02:03.555Z,60.00
2023-03-22T12:04:40.053Z,57.85
2023-03-22T12:07:16.880Z,57.70
2023-03-22T12:10:00.248Z,58.02
2023-03-22T12:12:57.299Z,58.97
2023-03-22T12:15:41.684Z,57.61
2023-03-22T12:18:17.338Z,57.61
2023-03-22T12:20:55.018Z,58.06
2023-03-22T12:23:30.732Z,58.19
2023-03-22T12:26:16.993Z,56.52
2023-03-22T12:28:56.520Z,57.11
2023-03-22T12:31:33.467Z,56.95
2023-03-22T12:38:35.599Z,56.90
2023-03-22T12:41:33.713Z,55.38
2023-03-22T12:44:15.084Z,55.28
2023-03-22T12:46:50.773Z,56.93
2023-03-22T12:49:22.773Z,56.90
2023-03-22T12:52:54.903Z,53.75
2023-03-22T12:55:55.728Z,53.92
2023-03-22T12:58:52.298Z,53.90
2023-03-22T13:01:52.992Z,56.28
2023-03-22T13:05:23.817Z,54.37
2023-03-22T13:07:55.437Z,54.64
2023-03-22T13:11:00.044Z,54.13
2023-03-22T13:13:45.560Z,54.54
2023-03-22T13:16:48.758Z,53.27
2023-03-22T13:19:38.010Z,53.78
2023-03-22T13:22:19.418Z,54.05
2023-03-22T13:25:27.172Z,54.47
2023-03-22T13:27:58.625Z,51.03
2023-03-22T13:39:03.122Z,49.87
2023-03-22T13:42:08.393Z,50.55
2023-03-22T13:44:46.200Z,50.79
2023-03-22T13:47:47.093Z,50.28
2023-03-22T13:51:04.821Z,47.30
2023-03-22T13:54:04.852Z,45.16
2023-03-22T13:56:52.907Z,44.87
2023-03-22T13:59:27.274Z,45.49
2023-03-22T14:02:18.871Z,45.24
2023-03-22T14:04:56.207Z,44.29
2023-03-22T14:07:46.249Z,44.09
2023-03-22T14:10:25.143Z,44.96
2023-03-22T14:13:18.819Z,45.05
2023-03-22T14:16:59.669Z,44.64
2023-03-22T14:20:41.098Z,47.43
